Absecon Heights, New Jersey
Current Conditions -  °F | °C
As of 8:54 AM on Tuesday 27 Jan 2015 (Local Time) from KACY Reporting Station
Light Snow Light Snow  
Wind Chill: -11°   Ceiling: 2300
Heat Index: -4°   Visibility: 1.2mi
Dew Point: -6°   Wind: 18mph
Humidity: 85%   Direction: 330°NNW
Pressure: 29.69"   Gusts: NA
Location:  39.4315°N, 74.5003°W
Report Text: KACY 271354Z 33016KT 1 1/4SM -SN BR OVC023 M04/M06 A2969 RMK AO2 SLP055 P0000 T10391061
Loading
Personal Weather Stations






























Interactive Weather Map New forecast layout! Learn more

10-Day Weather Forecast

Advertisements
Track Severe Weather on mobile